Main page
Satellite images 10-day forecastsClimateMarine weather Cyclones Lightning AirportsFAQ Newsletter About
Weather : Europe Africa North America South America Asia Australia-Oceania Others
Languages Contact

Budapest, Hungary

Budapest Ferenc Liszt International Airport

latitude: 47-26N, longitude: 019-16E, elevation: 151 m


METAR: LHBP 312330Z 00000KT CAVOK 19/16 Q1014 NOSIG
TAF: LHBP 312300Z 0100/0124 VRB03KT CAVOK BECMG 0107/0109 20012KT BECMG 0117/0119 22006KT BECMG 0122/0124 VRB03KT

Time: 01:44 (23:44 UTC)

Current weather observation

The report was made 14 minutes ago, at 23:30 UTC
Calm wind
Temperature 19°C
Humidity 83%
Pressure 1014 hPa
Visibility 10 km or more
no clouds below 1500 m and no cumulonimbus

Change units

Forecast

The report was made 44 minutes ago, at 23:00 UTC
Forecast valid from 01 at 00 UTC to 01 at 24 UTC
Wind 3 kt from variable directions
Visibility 10 km or more
no clouds below 1500 m and no cumulonimbus
Becoming
from 01 at 07 UTC to 01 at 09 UTC
Wind 12 kt from the South/Southwest
Becoming
from 01 at 17 UTC to 01 at 19 UTC
Wind 6 kt from the Southwest
Becoming
from 01 at 22 UTC to 01 at 24 UTC
Wind 3 kt from variable directions
The information on this site is subject to a disclaimer
Weather : Europe Africa North America South America Asia Australia-Oceania Others
Satellite images 10-day forecastsClimateMarine weather Cyclones Lightning AirportsFAQ Languages Contact Newsletter About